sensor_id;sensor_type;location;lat;lon;timestamp;P1;durP1;ratioP1;P2;durP2;ratioP2
78013;SDS011;67222;50.182;8.734;2023-02-17T05:31:47;10.27;;;5.15;;
78013;SDS011;67222;50.182;8.734;2023-02-17T05:34:12;10.43;;;4.95;;
78013;SDS011;67222;50.182;8.734;2023-02-17T05:36:37;8.60;;;4.80;;
78013;SDS011;67222;50.182;8.734;2023-02-17T05:39:03;8.73;;;5.57;;
78013;SDS011;67222;50.182;8.734;2023-02-17T05:41:28;9.47;;;5.10;;
78013;SDS011;67222;50.182;8.734;2023-02-17T05:43:53;7.37;;;4.87;;
78013;SDS011;67222;50.182;8.734;2023-02-17T05:46:19;7.93;;;4.97;;
78013;SDS011;67222;50.182;8.734;2023-02-17T05:48:44;7.00;;;4.43;;
78013;SDS011;67222;50.182;8.734;2023-02-17T05:51:10;8.15;;;4.72;;
78013;SDS011;67222;50.182;8.734;2023-02-17T05:53:37;7.40;;;4.28;;
78013;SDS011;67222;50.182;8.734;2023-02-17T05:56:03;7.95;;;4.40;;
78013;SDS011;67222;50.182;8.734;2023-02-17T05:58:28;7.88;;;4.15;;
78013;SDS011;67222;50.182;8.734;2023-02-17T06:00:54;6.45;;;4.10;;
78013;SDS011;67222;50.182;8.734;2023-02-17T06:03:19;11.00;;;4.30;;
78013;SDS011;67222;50.182;8.734;2023-02-17T06:05:45;6.78;;;4.05;;
78013;SDS011;67222;50.182;8.734;2023-02-17T06:08:10;7.60;;;3.95;;
78013;SDS011;67222;50.182;8.734;2023-02-17T06:10:36;8.38;;;3.60;;
78013;SDS011;67222;50.182;8.734;2023-02-17T06:13:01;6.87;;;3.90;;
78013;SDS011;67222;50.182;8.734;2023-02-17T06:15:26;7.97;;;4.20;;
78013;SDS011;67222;50.182;8.734;2023-02-17T06:17:52;6.53;;;3.72;;
78013;SDS011;67222;50.182;8.734;2023-02-17T06:20:18;6.47;;;3.50;;
78013;SDS011;67222;50.182;8.734;2023-02-17T06:22:43;6.47;;;3.58;;
78013;SDS011;67222;50.182;8.734;2023-02-17T06:25:09;8.23;;;3.63;;
78013;SDS011;67222;50.182;8.734;2023-02-17T06:27:34;7.33;;;3.87;;
78013;SDS011;67222;50.182;8.734;2023-02-17T06:30:00;6.35;;;4.00;;
78013;SDS011;67222;50.182;8.734;2023-02-17T06:32:26;7.72;;;4.93;;
78013;SDS011;67222;50.182;8.734;2023-02-17T06:34:52;6.50;;;3.70;;
78013;SDS011;67222;50.182;8.734;2023-02-17T06:37:17;7.28;;;3.63;;
78013;SDS011;67222;50.182;8.734;2023-02-17T06:39:42;6.07;;;3.63;;
78013;SDS011;67222;50.182;8.734;2023-02-17T06:42:08;6.87;;;4.03;;
78013;SDS011;67222;50.182;8.734;2023-02-17T06:44:33;6.43;;;3.65;;
78013;SDS011;67222;50.182;8.734;2023-02-17T06:46:58;7.47;;;3.50;;
78013;SDS011;67222;50.182;8.734;2023-02-17T06:49:24;9.25;;;4.10;;
78013;SDS011;67222;50.182;8.734;2023-02-17T06:51:49;5.90;;;3.67;;
78013;SDS011;67222;50.182;8.734;2023-02-17T06:54:15;6.63;;;2.95;;
78013;SDS011;67222;50.182;8.734;2023-02-17T06:56:40;7.07;;;3.43;;
78013;SDS011;67222;50.182;8.734;2023-02-17T06:59:06;6.38;;;3.30;;
78013;SDS011;67222;50.182;8.734;2023-02-17T07:01:31;6.17;;;4.13;;
78013;SDS011;67222;50.182;8.734;2023-02-17T07:03:56;7.20;;;3.57;;
78013;SDS011;67222;50.182;8.734;2023-02-17T07:06:22;5.68;;;3.70;;
78013;SDS011;67222;50.182;8.734;2023-02-17T07:08:48;7.75;;;3.53;;
78013;SDS011;67222;50.182;8.734;2023-02-17T07:11:15;4.88;;;3.08;;
78013;SDS011;67222;50.182;8.734;2023-02-17T07:13:41;7.75;;;3.58;;
78013;SDS011;67222;50.182;8.734;2023-02-17T07:16:08;6.82;;;3.35;;
78013;SDS011;67222;50.182;8.734;2023-02-17T07:18:36;5.43;;;3.53;;
78013;SDS011;67222;50.182;8.734;2023-02-17T07:21:03;5.43;;;3.10;;
78013;SDS011;67222;50.182;8.734;2023-02-17T07:23:29;6.28;;;3.30;;
78013;SDS011;67222;50.182;8.734;2023-02-17T07:25:55;8.68;;;3.10;;
78013;SDS011;67222;50.182;8.734;2023-02-17T07:28:20;5.33;;;3.47;;
78013;SDS011;67222;50.182;8.734;2023-02-17T07:30:45;3.90;;;2.55;;
78013;SDS011;67222;50.182;8.734;2023-02-17T07:33:11;5.93;;;3.47;;
78013;SDS011;67222;50.182;8.734;2023-02-17T07:35:42;5.03;;;2.97;;
78013;SDS011;67222;50.182;8.734;2023-02-17T07:38:09;5.35;;;3.05;;
78013;SDS011;67222;50.182;8.734;2023-02-17T07:40:34;4.90;;;2.70;;
78013;SDS011;67222;50.182;8.734;2023-02-17T07:43:00;5.22;;;3.40;;
78013;SDS011;67222;50.182;8.734;2023-02-17T07:45:25;5.33;;;2.63;;
78013;SDS011;67222;50.182;8.734;2023-02-17T07:47:51;5.05;;;3.03;;
78013;SDS011;67222;50.182;8.734;2023-02-17T07:50:16;4.37;;;2.57;;
78013;SDS011;67222;50.182;8.734;2023-02-17T07:52:41;5.00;;;3.35;;
78013;SDS011;67222;50.182;8.734;2023-02-17T07:55:07;6.50;;;3.03;;
78013;SDS011;67222;50.182;8.734;2023-02-17T07:57:32;5.63;;;2.90;;
78013;SDS011;67222;50.182;8.734;2023-02-17T07:59:57;5.53;;;3.10;;
78013;SDS011;67222;50.182;8.734;2023-02-17T08:02:22;5.37;;;2.83;;
78013;SDS011;67222;50.182;8.734;2023-02-17T08:04:48;5.63;;;2.97;;
78013;SDS011;67222;50.182;8.734;2023-02-17T08:07:15;5.00;;;2.92;;
78013;SDS011;67222;50.182;8.734;2023-02-17T08:09:40;4.60;;;2.77;;
78013;SDS011;67222;50.182;8.734;2023-02-17T08:12:24;5.28;;;2.97;;
78013;SDS011;67222;50.182;8.734;2023-02-17T08:15:09;4.25;;;2.50;;
78013;SDS011;67222;50.182;8.734;2023-02-17T08:17:35;4.72;;;2.50;;
78013;SDS011;67222;50.182;8.734;2023-02-17T08:20:00;3.83;;;2.35;;
78013;SDS011;67222;50.182;8.734;2023-02-17T08:22:26;4.38;;;2.22;;
78013;SDS011;67222;50.182;8.734;2023-02-17T08:24:51;4.47;;;2.38;;
78013;SDS011;67222;50.182;8.734;2023-02-17T08:27:17;4.78;;;2.75;;
78013;SDS011;67222;50.182;8.734;2023-02-17T08:29:43;5.35;;;2.58;;
78013;SDS011;67222;50.182;8.734;2023-02-17T08:32:09;3.47;;;1.95;;
78013;SDS011;67222;50.182;8.734;2023-02-17T08:34:34;5.53;;;2.28;;
78013;SDS011;67222;50.182;8.734;2023-02-17T08:37:00;5.38;;;2.20;;
78013;SDS011;67222;50.182;8.734;2023-02-17T08:39:26;4.47;;;2.58;;
78013;SDS011;67222;50.182;8.734;2023-02-17T08:41:51;4.32;;;2.28;;
78013;SDS011;67222;50.182;8.734;2023-02-17T08:44:18;5.45;;;2.25;;
78013;SDS011;67222;50.182;8.734;2023-02-17T08:46:45;4.13;;;2.50;;
78013;SDS011;67222;50.182;8.734;2023-02-17T08:49:12;4.50;;;2.22;;
78013;SDS011;67222;50.182;8.734;2023-02-17T08:51:38;4.90;;;2.58;;
78013;SDS011;67222;50.182;8.734;2023-02-17T08:54:04;4.45;;;2.67;;
78013;SDS011;67222;50.182;8.734;2023-02-17T08:56:31;5.43;;;2.85;;
78013;SDS011;67222;50.182;8.734;2023-02-17T08:58:58;4.22;;;2.60;;
78013;SDS011;67222;50.182;8.734;2023-02-17T09:01:24;4.10;;;2.42;;
78013;SDS011;67222;50.182;8.734;2023-02-17T09:03:50;4.55;;;2.60;;
78013;SDS011;67222;50.182;8.734;2023-02-17T09:06:17;6.20;;;2.70;;
78013;SDS011;67222;50.182;8.734;2023-02-17T09:08:43;4.70;;;2.53;;
78013;SDS011;67222;50.182;8.734;2023-02-17T09:11:09;4.30;;;2.53;;
78013;SDS011;67222;50.182;8.734;2023-02-17T09:13:35;4.47;;;2.42;;
78013;SDS011;67222;50.182;8.734;2023-02-17T09:16:00;5.07;;;2.92;;
78013;SDS011;67222;50.182;8.734;2023-02-17T09:18:26;4.65;;;2.88;;
78013;SDS011;67222;50.182;8.734;2023-02-17T09:20:51;6.43;;;3.20;;
78013;SDS011;67222;50.182;8.734;2023-02-17T09:23:17;5.47;;;2.92;;
78013;SDS011;67222;50.182;8.734;2023-02-17T09:25:43;4.68;;;2.83;;
78013;SDS011;67222;50.182;8.734;2023-02-17T09:28:08;6.22;;;3.40;;
78013;SDS011;67222;50.182;8.734;2023-02-17T09:30:34;5.47;;;3.35;;
78013;SDS011;67222;50.182;8.734;2023-02-17T09:33:00;6.47;;;3.40;;
78013;SDS011;67222;50.182;8.734;2023-02-17T09:35:26;5.32;;;3.08;;
78013;SDS011;67222;50.182;8.734;2023-02-17T09:37:51;4.68;;;2.65;;
78013;SDS011;67222;50.182;8.734;2023-02-17T09:40:18;5.60;;;3.20;;
78013;SDS011;67222;50.182;8.734;2023-02-17T09:42:46;5.07;;;3.03;;
78013;SDS011;67222;50.182;8.734;2023-02-17T09:45:18;5.85;;;3.13;;
78013;SDS011;67222;50.182;8.734;2023-02-17T09:48:02;6.03;;;3.05;;
78013;SDS011;67222;50.182;8.734;2023-02-17T09:56:23;6.53;;;3.30;;
78013;SDS011;67222;50.182;8.734;2023-02-17T09:58:54;6.55;;;3.10;;
78013;SDS011;67222;50.182;8.734;2023-02-17T10:01:27;5.20;;;3.25;;
78013;SDS011;67222;50.182;8.734;2023-02-17T10:04:01;5.60;;;2.90;;
78013;SDS011;67222;50.182;8.734;2023-02-17T10:06:39;5.72;;;3.10;;
78013;SDS011;67222;50.182;8.734;2023-02-17T10:14:45;5.53;;;3.25;;
78013;SDS011;67222;50.182;8.734;2023-02-17T10:19:58;6.15;;;3.50;;
78013;SDS011;67222;50.182;8.734;2023-02-17T10:22:28;5.70;;;3.42;;
78013;SDS011;67222;50.182;8.734;2023-02-17T10:24:55;6.78;;;3.65;;
78013;SDS011;67222;50.182;8.734;2023-02-17T10:27:36;5.25;;;3.20;;
78013;SDS011;67222;50.182;8.734;2023-02-17T10:35:16;8.52;;;3.28;;
78013;SDS011;67222;50.182;8.734;2023-02-17T10:37:53;6.95;;;3.50;;
78013;SDS011;67222;50.182;8.734;2023-02-17T10:40:35;6.28;;;3.40;;
78013;SDS011;67222;50.182;8.734;2023-02-17T10:43:02;5.53;;;3.30;;
78013;SDS011;67222;50.182;8.734;2023-02-17T10:45:34;6.03;;;3.33;;
78013;SDS011;67222;50.182;8.734;2023-02-17T10:48:07;5.82;;;3.08;;
78013;SDS011;67222;50.182;8.734;2023-02-17T10:53:10;5.90;;;2.83;;
78013;SDS011;67222;50.182;8.734;2023-02-17T10:55:49;5.97;;;3.03;;
78013;SDS011;67222;50.182;8.734;2023-02-17T10:58:33;6.90;;;3.75;;
78013;SDS011;67222;50.182;8.734;2023-02-17T11:01:00;6.28;;;3.10;;
78013;SDS011;67222;50.182;8.734;2023-02-17T11:03:29;5.30;;;2.67;;
78013;SDS011;67222;50.182;8.734;2023-02-17T11:11:19;5.78;;;2.83;;
78013;SDS011;67222;50.182;8.734;2023-02-17T11:16:24;5.75;;;2.60;;
78013;SDS011;67222;50.182;8.734;2023-02-17T11:18:52;5.05;;;2.85;;
78013;SDS011;67222;50.182;8.734;2023-02-17T11:21:18;5.35;;;2.83;;
78013;SDS011;67222;50.182;8.734;2023-02-17T11:23:51;4.05;;;2.58;;
78013;SDS011;67222;50.182;8.734;2023-02-17T11:26:24;5.00;;;3.17;;
78013;SDS011;67222;50.182;8.734;2023-02-17T11:28:52;5.07;;;2.63;;
78013;SDS011;67222;50.182;8.734;2023-02-17T11:31:21;4.72;;;2.75;;
78013;SDS011;67222;50.182;8.734;2023-02-17T11:33:49;4.53;;;2.65;;
78013;SDS011;67222;50.182;8.734;2023-02-17T11:36:24;4.60;;;2.55;;
78013;SDS011;67222;50.182;8.734;2023-02-17T11:38:56;4.88;;;2.45;;
78013;SDS011;67222;50.182;8.734;2023-02-17T11:41:23;4.22;;;2.17;;
78013;SDS011;67222;50.182;8.734;2023-02-17T11:43:52;5.03;;;2.73;;
78013;SDS011;67222;50.182;8.734;2023-02-17T11:46:23;4.43;;;2.55;;
78013;SDS011;67222;50.182;8.734;2023-02-17T11:59:35;4.13;;;2.30;;
78013;SDS011;67222;50.182;8.734;2023-02-17T12:02:16;3.55;;;2.47;;
78013;SDS011;67222;50.182;8.734;2023-02-17T12:12:58;3.85;;;2.40;;
78013;SDS011;67222;50.182;8.734;2023-02-17T12:15:40;3.30;;;2.00;;
78013;SDS011;67222;50.182;8.734;2023-02-17T12:31:28;2.60;;;1.50;;
78013;SDS011;67222;50.182;8.734;2023-02-17T12:36:58;2.47;;;1.33;;
78013;SDS011;67222;50.182;8.734;2023-02-17T12:39:37;2.40;;;1.25;;
78013;SDS011;67222;50.182;8.734;2023-02-17T12:42:10;2.17;;;1.20;;
78013;SDS011;67222;50.182;8.734;2023-02-17T12:44:56;4.25;;;2.00;;
78013;SDS011;67222;50.182;8.734;2023-02-17T12:47:28;2.40;;;1.30;;
78013;SDS011;67222;50.182;8.734;2023-02-17T12:50:45;2.22;;;1.23;;
78013;SDS011;67222;50.182;8.734;2023-02-17T12:56:25;2.88;;;1.40;;
78013;SDS011;67222;50.182;8.734;2023-02-17T12:58:53;2.78;;;1.45;;
78013;SDS011;67222;50.182;8.734;2023-02-17T13:01:23;3.83;;;1.30;;
78013;SDS011;67222;50.182;8.734;2023-02-17T13:03:53;3.67;;;1.75;;
78013;SDS011;67222;50.182;8.734;2023-02-17T13:06:33;2.17;;;1.20;;
78013;SDS011;67222;50.182;8.734;2023-02-17T13:11:32;2.97;;;1.50;;
78013;SDS011;67222;50.182;8.734;2023-02-17T13:14:20;3.35;;;1.67;;
78013;SDS011;67222;50.182;8.734;2023-02-17T13:16:50;3.05;;;1.80;;
78013;SDS011;67222;50.182;8.734;2023-02-17T13:19:26;2.22;;;1.17;;
78013;SDS011;67222;50.182;8.734;2023-02-17T13:21:53;2.35;;;1.15;;
78013;SDS011;67222;50.182;8.734;2023-02-17T13:26:54;2.85;;;1.42;;
78013;SDS011;67222;50.182;8.734;2023-02-17T13:31:50;2.05;;;1.15;;
78013;SDS011;67222;50.182;8.734;2023-02-17T13:34:23;3.28;;;1.40;;
78013;SDS011;67222;50.182;8.734;2023-02-17T13:37:42;2.42;;;1.10;;
78013;SDS011;67222;50.182;8.734;2023-02-17T13:39:59;1.98;;;1.08;;
78013;SDS011;67222;50.182;8.734;2023-02-17T13:47:50;2.28;;;1.10;;
78013;SDS011;67222;50.182;8.734;2023-02-17T13:50:50;2.03;;;1.00;;
78013;SDS011;67222;50.182;8.734;2023-02-17T13:55:47;1.60;;;0.80;;
78013;SDS011;67222;50.182;8.734;2023-02-17T13:58:12;3.47;;;1.10;;
78013;SDS011;67222;50.182;8.734;2023-02-17T14:00:38;1.83;;;1.00;;
78013;SDS011;67222;50.182;8.734;2023-02-17T14:05:49;1.95;;;1.00;;
78013;SDS011;67222;50.182;8.734;2023-02-17T14:08:17;2.22;;;1.00;;
78013;SDS011;67222;50.182;8.734;2023-02-17T14:10:47;3.35;;;1.25;;
78013;SDS011;67222;50.182;8.734;2023-02-17T14:13:13;3.15;;;1.20;;
78013;SDS011;67222;50.182;8.734;2023-02-17T14:15:50;2.55;;;1.27;;
78013;SDS011;67222;50.182;8.734;2023-02-17T14:23:27;2.03;;;1.10;;
78013;SDS011;67222;50.182;8.734;2023-02-17T14:26:36;2.63;;;1.25;;
78013;SDS011;67222;50.182;8.734;2023-02-17T14:29:05;2.78;;;1.58;;
78013;SDS011;67222;50.182;8.734;2023-02-17T14:34:12;3.72;;;1.20;;
78013;SDS011;67222;50.182;8.734;2023-02-17T14:36:49;3.78;;;1.65;;
78013;SDS011;67222;50.182;8.734;2023-02-17T14:39:15;4.03;;;1.80;;
78013;SDS011;67222;50.182;8.734;2023-02-17T14:41:40;2.42;;;1.50;;
78013;SDS011;67222;50.182;8.734;2023-02-17T14:44:06;3.47;;;1.20;;
78013;SDS011;67222;50.182;8.734;2023-02-17T14:46:33;4.45;;;1.23;;
78013;SDS011;67222;50.182;8.734;2023-02-17T14:48:59;2.10;;;1.10;;
78013;SDS011;67222;50.182;8.734;2023-02-17T14:51:25;2.75;;;1.08;;
78013;SDS011;67222;50.182;8.734;2023-02-17T14:53:57;3.05;;;1.63;;
78013;SDS011;67222;50.182;8.734;2023-02-17T14:56:30;1.83;;;0.90;;
78013;SDS011;67222;50.182;8.734;2023-02-17T14:58:59;3.17;;;1.35;;
78013;SDS011;67222;50.182;8.734;2023-02-17T15:01:24;4.00;;;1.38;;
78013;SDS011;67222;50.182;8.734;2023-02-17T15:03:51;3.58;;;1.77;;
78013;SDS011;67222;50.182;8.734;2023-02-17T15:06:18;4.53;;;1.90;;
78013;SDS011;67222;50.182;8.734;2023-02-17T15:08:46;2.20;;;0.90;;
78013;SDS011;67222;50.182;8.734;2023-02-17T15:11:19;1.60;;;0.80;;
78013;SDS011;67222;50.182;8.734;2023-02-17T15:13:50;1.95;;;0.80;;
78013;SDS011;67222;50.182;8.734;2023-02-17T15:16:16;2.20;;;0.93;;
78013;SDS011;67222;50.182;8.734;2023-02-17T15:18:41;3.83;;;1.10;;
78013;SDS011;67222;50.182;8.734;2023-02-17T15:21:19;1.77;;;0.80;;
78013;SDS011;67222;50.182;8.734;2023-02-17T15:23:54;3.47;;;1.20;;
78013;SDS011;67222;50.182;8.734;2023-02-17T15:26:20;2.75;;;1.45;;
78013;SDS011;67222;50.182;8.734;2023-02-17T15:28:46;4.40;;;2.35;;
78013;SDS011;67222;50.182;8.734;2023-02-17T15:31:11;4.55;;;2.25;;
78013;SDS011;67222;50.182;8.734;2023-02-17T15:33:39;4.78;;;2.10;;
78013;SDS011;67222;50.182;8.734;2023-02-17T15:36:06;3.55;;;1.50;;
78013;SDS011;67222;50.182;8.734;2023-02-17T15:38:34;2.72;;;1.42;;
78013;SDS011;67222;50.182;8.734;2023-02-17T15:41:00;2.50;;;0.97;;
78013;SDS011;67222;50.182;8.734;2023-02-17T15:43:30;1.45;;;0.80;;
78013;SDS011;67222;50.182;8.734;2023-02-17T15:45:59;1.83;;;1.00;;
78013;SDS011;67222;50.182;8.734;2023-02-17T15:48:25;2.08;;;0.90;;
78013;SDS011;67222;50.182;8.734;2023-02-17T15:50:53;1.30;;;0.80;;
78013;SDS011;67222;50.182;8.734;2023-02-17T15:53:19;1.83;;;0.90;;
78013;SDS011;67222;50.182;8.734;2023-02-17T15:55:45;2.13;;;0.70;;
78013;SDS011;67222;50.182;8.734;2023-02-17T15:58:17;1.60;;;1.00;;
78013;SDS011;67222;50.182;8.734;2023-02-17T16:00:44;1.67;;;0.85;;
78013;SDS011;67222;50.182;8.734;2023-02-17T16:03:11;1.63;;;0.70;;
78013;SDS011;67222;50.182;8.734;2023-02-17T16:05:37;1.25;;;0.80;;
78013;SDS011;67222;50.182;8.734;2023-02-17T16:08:03;2.17;;;0.70;;
78013;SDS011;67222;50.182;8.734;2023-02-17T16:10:29;1.80;;;0.90;;
78013;SDS011;67222;50.182;8.734;2023-02-17T16:12:56;1.90;;;0.80;;
78013;SDS011;67222;50.182;8.734;2023-02-17T16:15:23;1.50;;;0.73;;
78013;SDS011;67222;50.182;8.734;2023-02-17T16:17:50;2.03;;;0.80;;
78013;SDS011;67222;50.182;8.734;2023-02-17T16:23:01;0.82;;;0.50;;
78013;SDS011;67222;50.182;8.734;2023-02-17T16:25:27;1.88;;;0.90;;
78013;SDS011;67222;50.182;8.734;2023-02-17T16:27:53;1.58;;;1.02;;
78013;SDS011;67222;50.182;8.734;2023-02-17T16:30:24;1.85;;;0.80;;
78013;SDS011;67222;50.182;8.734;2023-02-17T16:32:51;2.13;;;0.70;;
78013;SDS011;67222;50.182;8.734;2023-02-17T16:35:23;2.35;;;1.00;;
78013;SDS011;67222;50.182;8.734;2023-02-17T16:37:58;1.42;;;0.80;;
78013;SDS011;67222;50.182;8.734;2023-02-17T16:40:26;1.70;;;0.85;;
78013;SDS011;67222;50.182;8.734;2023-02-17T16:42:53;2.33;;;0.80;;
78013;SDS011;67222;50.182;8.734;2023-02-17T16:45:19;1.63;;;0.60;;
78013;SDS011;67222;50.182;8.734;2023-02-17T16:47:47;1.63;;;0.70;;
78013;SDS011;67222;50.182;8.734;2023-02-17T16:50:23;2.25;;;0.77;;
78013;SDS011;67222;50.182;8.734;2023-02-17T16:53:00;1.67;;;0.77;;
78013;SDS011;67222;50.182;8.734;2023-02-17T16:55:30;1.27;;;0.70;;
78013;SDS011;67222;50.182;8.734;2023-02-17T16:57:58;1.75;;;0.90;;
78013;SDS011;67222;50.182;8.734;2023-02-17T17:00:24;5.05;;;3.28;;
78013;SDS011;67222;50.182;8.734;2023-02-17T17:02:53;3.95;;;2.33;;
78013;SDS011;67222;50.182;8.734;2023-02-17T17:05:21;4.60;;;2.83;;
78013;SDS011;67222;50.182;8.734;2023-02-17T17:07:48;3.10;;;1.63;;
78013;SDS011;67222;50.182;8.734;2023-02-17T17:12:45;4.10;;;2.28;;
78013;SDS011;67222;50.182;8.734;2023-02-17T17:15:11;1.33;;;0.70;;
78013;SDS011;67222;50.182;8.734;2023-02-17T17:17:56;2.22;;;1.00;;
78013;SDS011;67222;50.182;8.734;2023-02-17T17:20:24;1.73;;;1.02;;
78013;SDS011;67222;50.182;8.734;2023-02-17T17:22:56;2.17;;;0.98;;
78013;SDS011;67222;50.182;8.734;2023-02-17T17:25:23;2.03;;;1.10;;
78013;SDS011;67222;50.182;8.734;2023-02-17T17:27:49;1.67;;;0.63;;
78013;SDS011;67222;50.182;8.734;2023-02-17T17:30:16;1.58;;;0.63;;
78013;SDS011;67222;50.182;8.734;2023-02-17T17:32:44;1.05;;;0.50;;
78013;SDS011;67222;50.182;8.734;2023-02-17T17:35:09;1.42;;;0.70;;
78013;SDS011;67222;50.182;8.734;2023-02-17T17:37:34;1.60;;;0.80;;
78013;SDS011;67222;50.182;8.734;2023-02-17T17:40:00;1.27;;;0.50;;
78013;SDS011;67222;50.182;8.734;2023-02-17T17:42:25;1.80;;;0.70;;
78013;SDS011;67222;50.182;8.734;2023-02-17T17:44:50;1.27;;;0.50;;
78013;SDS011;67222;50.182;8.734;2023-02-17T17:47:16;1.00;;;0.57;;
78013;SDS011;67222;50.182;8.734;2023-02-17T17:49:43;0.90;;;0.60;;
78013;SDS011;67222;50.182;8.734;2023-02-17T17:52:10;1.23;;;0.60;;
78013;SDS011;67222;50.182;8.734;2023-02-17T17:54:38;2.63;;;0.70;;
78013;SDS011;67222;50.182;8.734;2023-02-17T17:57:04;1.35;;;0.60;;
78013;SDS011;67222;50.182;8.734;2023-02-17T17:59:29;2.60;;;1.30;;
78013;SDS011;67222;50.182;8.734;2023-02-17T18:01:54;2.07;;;0.87;;
78013;SDS011;67222;50.182;8.734;2023-02-17T18:04:19;2.93;;;1.33;;
78013;SDS011;67222;50.182;8.734;2023-02-17T18:06:46;2.53;;;1.00;;
78013;SDS011;67222;50.182;8.734;2023-02-17T18:09:15;2.22;;;1.05;;
78013;SDS011;67222;50.182;8.734;2023-02-17T18:11:45;3.00;;;1.02;;
78013;SDS011;67222;50.182;8.734;2023-02-17T18:14:13;2.50;;;1.20;;
78013;SDS011;67222;50.182;8.734;2023-02-17T18:16:41;1.60;;;0.88;;
78013;SDS011;67222;50.182;8.734;2023-02-17T18:19:09;3.45;;;1.38;;
78013;SDS011;67222;50.182;8.734;2023-02-17T18:21:36;3.45;;;1.33;;
78013;SDS011;67222;50.182;8.734;2023-02-17T18:24:03;4.72;;;1.80;;
78013;SDS011;67222;50.182;8.734;2023-02-17T18:26:28;4.30;;;2.00;;
78013;SDS011;67222;50.182;8.734;2023-02-17T18:28:54;6.30;;;2.42;;
78013;SDS011;67222;50.182;8.734;2023-02-17T18:31:21;3.65;;;1.70;;
78013;SDS011;67222;50.182;8.734;2023-02-17T18:33:46;3.92;;;1.92;;
78013;SDS011;67222;50.182;8.734;2023-02-17T18:36:13;9.43;;;3.88;;
78013;SDS011;67222;50.182;8.734;2023-02-17T18:41:06;4.40;;;2.47;;
78013;SDS011;67222;50.182;8.734;2023-02-17T18:43:32;3.78;;;2.40;;
78013;SDS011;67222;50.182;8.734;2023-02-17T18:45:57;3.20;;;2.05;;
78013;SDS011;67222;50.182;8.734;2023-02-17T18:48:23;3.63;;;1.77;;
78013;SDS011;67222;50.182;8.734;2023-02-17T18:50:48;3.03;;;1.57;;
78013;SDS011;67222;50.182;8.734;2023-02-17T18:53:15;3.00;;;1.50;;
78013;SDS011;67222;50.182;8.734;2023-02-17T18:55:41;2.67;;;1.50;;
78013;SDS011;67222;50.182;8.734;2023-02-17T18:58:06;3.35;;;1.65;;
78013;SDS011;67222;50.182;8.734;2023-02-17T19:00:32;2.70;;;1.40;;
78013;SDS011;67222;50.182;8.734;2023-02-17T19:02:57;2.30;;;1.20;;
78013;SDS011;67222;50.182;8.734;2023-02-17T19:05:23;3.15;;;1.90;;
78013;SDS011;67222;50.182;8.734;2023-02-17T19:07:52;3.38;;;1.83;;
78013;SDS011;67222;50.182;8.734;2023-02-17T19:10:18;2.72;;;1.80;;
78013;SDS011;67222;50.182;8.734;2023-02-17T19:12:43;3.72;;;1.63;;
78013;SDS011;67222;50.182;8.734;2023-02-17T19:15:09;2.50;;;1.50;;
78013;SDS011;67222;50.182;8.734;2023-02-17T19:17:34;3.67;;;1.60;;
78013;SDS011;67222;50.182;8.734;2023-02-17T19:20:00;3.20;;;1.77;;
78013;SDS011;67222;50.182;8.734;2023-02-17T19:22:25;3.92;;;2.00;;
78013;SDS011;67222;50.182;8.734;2023-02-17T19:24:52;4.32;;;2.28;;
78013;SDS011;67222;50.182;8.734;2023-02-17T19:27:18;3.30;;;2.00;;
78013;SDS011;67222;50.182;8.734;2023-02-17T19:29:44;3.08;;;1.83;;
78013;SDS011;67222;50.182;8.734;2023-02-17T19:32:10;3.65;;;1.88;;
78013;SDS011;67222;50.182;8.734;2023-02-17T19:34:36;3.05;;;2.03;;
78013;SDS011;67222;50.182;8.734;2023-02-17T19:37:02;4.00;;;2.20;;
78013;SDS011;67222;50.182;8.734;2023-02-17T19:39:28;5.00;;;2.17;;
78013;SDS011;67222;50.182;8.734;2023-02-17T19:41:54;4.13;;;2.33;;
78013;SDS011;67222;50.182;8.734;2023-02-17T19:44:20;4.13;;;2.73;;
78013;SDS011;67222;50.182;8.734;2023-02-17T19:46:45;4.30;;;2.42;;
78013;SDS011;67222;50.182;8.734;2023-02-17T19:49:11;4.40;;;2.40;;
78013;SDS011;67222;50.182;8.734;2023-02-17T19:51:37;6.63;;;3.00;;
78013;SDS011;67222;50.182;8.734;2023-02-17T19:54:03;5.10;;;2.63;;
78013;SDS011;67222;50.182;8.734;2023-02-17T19:56:30;4.72;;;2.85;;
78013;SDS011;67222;50.182;8.734;2023-02-17T19:58:58;5.50;;;3.28;;
78013;SDS011;67222;50.182;8.734;2023-02-17T20:01:24;5.22;;;3.08;;
78013;SDS011;67222;50.182;8.734;2023-02-17T20:03:52;7.32;;;2.90;;
78013;SDS011;67222;50.182;8.734;2023-02-17T20:06:24;5.95;;;3.33;;
78013;SDS011;67222;50.182;8.734;2023-02-17T20:08:54;7.10;;;3.40;;
78013;SDS011;67222;50.182;8.734;2023-02-17T20:13:47;6.75;;;3.53;;
78013;SDS011;67222;50.182;8.734;2023-02-17T20:16:13;4.88;;;3.20;;
78013;SDS011;67222;50.182;8.734;2023-02-17T20:18:41;7.00;;;3.97;;
78013;SDS011;67222;50.182;8.734;2023-02-17T20:21:09;5.80;;;3.40;;
78013;SDS011;67222;50.182;8.734;2023-02-17T20:23:35;6.35;;;3.90;;
78013;SDS011;67222;50.182;8.734;2023-02-17T20:26:05;6.85;;;3.88;;
78013;SDS011;67222;50.182;8.734;2023-02-17T20:28:35;8.80;;;4.50;;
78013;SDS011;67222;50.182;8.734;2023-02-17T20:31:01;7.38;;;4.45;;
78013;SDS011;67222;50.182;8.734;2023-02-17T20:33:26;7.90;;;5.10;;
78013;SDS011;67222;50.182;8.734;2023-02-17T20:35:51;8.60;;;4.40;;
78013;SDS011;67222;50.182;8.734;2023-02-17T20:38:17;9.23;;;4.47;;
78013;SDS011;67222;50.182;8.734;2023-02-17T20:40:42;8.18;;;4.53;;
78013;SDS011;67222;50.182;8.734;2023-02-17T20:43:08;8.02;;;4.15;;
78013;SDS011;67222;50.182;8.734;2023-02-17T20:45:37;8.82;;;4.60;;
78013;SDS011;67222;50.182;8.734;2023-02-17T20:48:03;7.78;;;4.68;;
78013;SDS011;67222;50.182;8.734;2023-02-17T20:50:29;8.52;;;4.60;;
78013;SDS011;67222;50.182;8.734;2023-02-17T20:52:54;8.07;;;4.73;;
78013;SDS011;67222;50.182;8.734;2023-02-17T20:55:20;8.00;;;4.40;;
78013;SDS011;67222;50.182;8.734;2023-02-17T20:57:45;9.52;;;4.88;;
78013;SDS011;67222;50.182;8.734;2023-02-17T21:00:15;8.50;;;5.00;;
78013;SDS011;67222;50.182;8.734;2023-02-17T21:02:42;10.75;;;4.80;;
78013;SDS011;67222;50.182;8.734;2023-02-17T21:05:08;10.88;;;4.80;;
78013;SDS011;67222;50.182;8.734;2023-02-17T21:07:33;8.57;;;4.32;;
78013;SDS011;67222;50.182;8.734;2023-02-17T21:09:58;9.10;;;5.07;;
78013;SDS011;67222;50.182;8.734;2023-02-17T21:12:24;8.70;;;5.10;;
78013;SDS011;67222;50.182;8.734;2023-02-17T21:14:49;10.70;;;5.13;;
78013;SDS011;67222;50.182;8.734;2023-02-17T21:17:15;9.18;;;4.90;;
78013;SDS011;67222;50.182;8.734;2023-02-17T21:19:40;9.00;;;4.72;;
78013;SDS011;67222;50.182;8.734;2023-02-17T21:22:06;8.80;;;5.10;;
78013;SDS011;67222;50.182;8.734;2023-02-17T21:24:31;8.82;;;5.03;;
78013;SDS011;67222;50.182;8.734;2023-02-17T21:26:58;8.98;;;5.03;;
78013;SDS011;67222;50.182;8.734;2023-02-17T21:29:24;10.70;;;5.10;;
78013;SDS011;67222;50.182;8.734;2023-02-17T21:31:49;8.95;;;5.13;;
78013;SDS011;67222;50.182;8.734;2023-02-17T21:34:16;34.63;;;19.70;;
78013;SDS011;67222;50.182;8.734;2023-02-17T21:36:41;11.35;;;5.20;;
78013;SDS011;67222;50.182;8.734;2023-02-17T21:39:07;12.65;;;6.03;;
78013;SDS011;67222;50.182;8.734;2023-02-17T21:41:32;10.67;;;5.80;;
78013;SDS011;67222;50.182;8.734;2023-02-17T21:43:58;11.27;;;5.80;;
78013;SDS011;67222;50.182;8.734;2023-02-17T21:46:42;10.30;;;5.43;;
78013;SDS011;67222;50.182;8.734;2023-02-17T21:49:09;9.65;;;5.25;;
78013;SDS011;67222;50.182;8.734;2023-02-17T21:51:35;10.55;;;6.05;;
78013;SDS011;67222;50.182;8.734;2023-02-17T21:54:02;11.15;;;5.88;;
78013;SDS011;67222;50.182;8.734;2023-02-17T21:56:29;10.10;;;5.50;;
78013;SDS011;67222;50.182;8.734;2023-02-17T21:58:54;11.07;;;5.72;;
78013;SDS011;67222;50.182;8.734;2023-02-17T22:01:21;10.18;;;5.55;;
78013;SDS011;67222;50.182;8.734;2023-02-17T22:03:48;8.43;;;5.35;;
78013;SDS011;67222;50.182;8.734;2023-02-17T22:06:20;10.90;;;5.10;;
78013;SDS011;67222;50.182;8.734;2023-02-17T22:08:48;8.32;;;4.68;;